sensor_id;sensor_type;location;lat;lon;timestamp;temperature;humidity
1355;DHT22;671;48.972;9.276;2023-09-07T00:01:00;16.30;99.90
1355;DHT22;671;48.972;9.276;2023-09-07T00:03:30;16.30;99.90
1355;DHT22;671;48.972;9.276;2023-09-07T00:05:57;16.30;99.90
1355;DHT22;671;48.972;9.276;2023-09-07T00:08:23;16.30;99.90
1355;DHT22;671;48.972;9.276;2023-09-07T00:10:52;16.20;99.90
1355;DHT22;671;48.972;9.276;2023-09-07T00:13:18;16.30;99.90
1355;DHT22;671;48.972;9.276;2023-09-07T00:15:44;16.20;99.90
1355;DHT22;671;48.972;9.276;2023-09-07T00:18:11;16.20;99.90
1355;DHT22;671;48.972;9.276;2023-09-07T00:20:38;16.10;99.90
1355;DHT22;671;48.972;9.276;2023-09-07T00:23:04;16.10;99.90
1355;DHT22;671;48.972;9.276;2023-09-07T00:25:31;16.10;99.90
1355;DHT22;671;48.972;9.276;2023-09-07T00:27:58;16.10;99.90
1355;DHT22;671;48.972;9.276;2023-09-07T00:30:24;16.00;99.90
1355;DHT22;671;48.972;9.276;2023-09-07T00:32:51;16.00;99.90
1355;DHT22;671;48.972;9.276;2023-09-07T00:35:17;15.90;99.90
1355;DHT22;671;48.972;9.276;2023-09-07T00:37:44;15.90;99.90
1355;DHT22;671;48.972;9.276;2023-09-07T00:40:10;15.90;99.90
1355;DHT22;671;48.972;9.276;2023-09-07T00:42:37;15.90;99.90
1355;DHT22;671;48.972;9.276;2023-09-07T00:45:04;15.80;99.90
1355;DHT22;671;48.972;9.276;2023-09-07T00:47:30;15.80;99.90
1355;DHT22;671;48.972;9.276;2023-09-07T00:49:59;15.90;99.90
1355;DHT22;671;48.972;9.276;2023-09-07T00:52:27;15.80;99.90
1355;DHT22;671;48.972;9.276;2023-09-07T00:54:53;15.80;99.90
1355;DHT22;671;48.972;9.276;2023-09-07T00:57:20;15.80;99.90
1355;DHT22;671;48.972;9.276;2023-09-07T00:59:47;15.80;99.90
1355;DHT22;671;48.972;9.276;2023-09-07T01:02:13;15.80;99.90
1355;DHT22;671;48.972;9.276;2023-09-07T01:04:39;15.70;99.90
1355;DHT22;671;48.972;9.276;2023-09-07T01:07:18;15.70;99.90
1355;DHT22;671;48.972;9.276;2023-09-07T01:09:50;15.60;99.90
1355;DHT22;671;48.972;9.276;2023-09-07T01:12:17;15.60;99.90
1355;DHT22;671;48.972;9.276;2023-09-07T01:14:44;15.60;99.90
1355;DHT22;671;48.972;9.276;2023-09-07T01:17:10;15.60;99.90
1355;DHT22;671;48.972;9.276;2023-09-07T01:19:38;15.50;99.90
1355;DHT22;671;48.972;9.276;2023-09-07T01:22:07;15.50;99.90
1355;DHT22;671;48.972;9.276;2023-09-07T01:24:34;15.50;99.90
1355;DHT22;671;48.972;9.276;2023-09-07T01:27:03;15.50;99.90
1355;DHT22;671;48.972;9.276;2023-09-07T01:29:31;15.40;99.90
1355;DHT22;671;48.972;9.276;2023-09-07T01:31:57;15.40;99.90
1355;DHT22;671;48.972;9.276;2023-09-07T01:34:24;15.40;99.90
1355;DHT22;671;48.972;9.276;2023-09-07T01:36:51;15.40;99.90
1355;DHT22;671;48.972;9.276;2023-09-07T01:39:17;15.30;99.90
1355;DHT22;671;48.972;9.276;2023-09-07T01:41:43;15.30;99.90
1355;DHT22;671;48.972;9.276;2023-09-07T01:44:10;15.30;99.90
1355;DHT22;671;48.972;9.276;2023-09-07T01:46:37;15.30;99.90
1355;DHT22;671;48.972;9.276;2023-09-07T01:49:03;15.30;99.90
1355;DHT22;671;48.972;9.276;2023-09-07T01:51:30;15.30;99.90
1355;DHT22;671;48.972;9.276;2023-09-07T01:53:56;15.20;99.90
1355;DHT22;671;48.972;9.276;2023-09-07T01:56:22;15.20;99.90
1355;DHT22;671;48.972;9.276;2023-09-07T01:58:49;15.20;99.90
1355;DHT22;671;48.972;9.276;2023-09-07T02:01:25;15.20;99.90
1355;DHT22;671;48.972;9.276;2023-09-07T02:03:52;15.20;99.90
1355;DHT22;671;48.972;9.276;2023-09-07T02:06:19;15.20;99.90
1355;DHT22;671;48.972;9.276;2023-09-07T02:08:45;15.10;99.90
1355;DHT22;671;48.972;9.276;2023-09-07T02:11:12;15.00;99.90
1355;DHT22;671;48.972;9.276;2023-09-07T02:13:42;14.90;99.90
1355;DHT22;671;48.972;9.276;2023-09-07T02:16:09;14.90;99.90
1355;DHT22;671;48.972;9.276;2023-09-07T02:18:36;14.90;99.90
1355;DHT22;671;48.972;9.276;2023-09-07T02:21:04;14.90;99.90
1355;DHT22;671;48.972;9.276;2023-09-07T02:23:32;14.90;99.90
1355;DHT22;671;48.972;9.276;2023-09-07T02:25:59;14.90;99.90
1355;DHT22;671;48.972;9.276;2023-09-07T02:28:26;14.90;99.90
1355;DHT22;671;48.972;9.276;2023-09-07T02:30:52;14.90;99.90
1355;DHT22;671;48.972;9.276;2023-09-07T02:33:19;14.90;99.90
1355;DHT22;671;48.972;9.276;2023-09-07T02:35:49;14.90;99.90
1355;DHT22;671;48.972;9.276;2023-09-07T02:38:16;14.90;99.90
1355;DHT22;671;48.972;9.276;2023-09-07T02:40:43;14.90;99.90
1355;DHT22;671;48.972;9.276;2023-09-07T02:43:10;14.90;99.90
1355;DHT22;671;48.972;9.276;2023-09-07T02:45:38;14.90;99.90
1355;DHT22;671;48.972;9.276;2023-09-07T02:48:05;14.80;99.90
1355;DHT22;671;48.972;9.276;2023-09-07T02:50:33;14.80;99.90
1355;DHT22;671;48.972;9.276;2023-09-07T02:53:00;14.80;99.90
1355;DHT22;671;48.972;9.276;2023-09-07T02:55:27;14.70;99.90
1355;DHT22;671;48.972;9.276;2023-09-07T02:57:56;14.70;99.90
1355;DHT22;671;48.972;9.276;2023-09-07T03:00:23;14.70;99.90
1355;DHT22;671;48.972;9.276;2023-09-07T03:02:50;14.70;99.90
1355;DHT22;671;48.972;9.276;2023-09-07T03:05:16;14.70;99.90
1355;DHT22;671;48.972;9.276;2023-09-07T03:07:45;14.60;99.90
1355;DHT22;671;48.972;9.276;2023-09-07T03:10:12;14.60;99.90
1355;DHT22;671;48.972;9.276;2023-09-07T03:12:39;14.60;99.90
1355;DHT22;671;48.972;9.276;2023-09-07T03:15:06;14.60;99.90
1355;DHT22;671;48.972;9.276;2023-09-07T03:17:32;14.60;99.90
1355;DHT22;671;48.972;9.276;2023-09-07T03:19:59;14.50;99.90
1355;DHT22;671;48.972;9.276;2023-09-07T03:22:25;14.50;99.90
1355;DHT22;671;48.972;9.276;2023-09-07T03:24:53;14.50;99.90
1355;DHT22;671;48.972;9.276;2023-09-07T03:27:19;14.50;99.90
1355;DHT22;671;48.972;9.276;2023-09-07T03:29:50;14.50;99.90
1355;DHT22;671;48.972;9.276;2023-09-07T03:32:18;14.50;99.90
1355;DHT22;671;48.972;9.276;2023-09-07T03:34:44;14.50;99.90
1355;DHT22;671;48.972;9.276;2023-09-07T03:37:11;14.40;99.90
1355;DHT22;671;48.972;9.276;2023-09-07T03:39:37;14.50;99.90
1355;DHT22;671;48.972;9.276;2023-09-07T03:42:04;14.40;99.90
1355;DHT22;671;48.972;9.276;2023-09-07T03:44:30;14.40;99.90
1355;DHT22;671;48.972;9.276;2023-09-07T03:46:57;14.40;99.90
1355;DHT22;671;48.972;9.276;2023-09-07T03:49:23;14.30;99.90
1355;DHT22;671;48.972;9.276;2023-09-07T03:51:50;14.30;99.90
1355;DHT22;671;48.972;9.276;2023-09-07T03:54:16;14.30;99.90
1355;DHT22;671;48.972;9.276;2023-09-07T03:56:43;14.20;99.90
1355;DHT22;671;48.972;9.276;2023-09-07T03:59:09;14.20;99.90
1355;DHT22;671;48.972;9.276;2023-09-07T04:01:37;14.20;99.90
1355;DHT22;671;48.972;9.276;2023-09-07T04:04:04;14.20;99.90
1355;DHT22;671;48.972;9.276;2023-09-07T04:06:30;14.20;99.90
1355;DHT22;671;48.972;9.276;2023-09-07T04:08:56;14.10;99.90
1355;DHT22;671;48.972;9.276;2023-09-07T04:11:23;14.10;99.90
1355;DHT22;671;48.972;9.276;2023-09-07T04:13:49;14.10;99.90
1355;DHT22;671;48.972;9.276;2023-09-07T04:16:16;14.10;99.90
1355;DHT22;671;48.972;9.276;2023-09-07T04:18:42;14.00;99.90
1355;DHT22;671;48.972;9.276;2023-09-07T04:21:10;14.00;99.90
1355;DHT22;671;48.972;9.276;2023-09-07T04:23:37;14.00;99.90
1355;DHT22;671;48.972;9.276;2023-09-07T04:26:09;14.00;99.90
1355;DHT22;671;48.972;9.276;2023-09-07T04:28:36;14.00;99.90
1355;DHT22;671;48.972;9.276;2023-09-07T04:31:03;14.00;99.90
1355;DHT22;671;48.972;9.276;2023-09-07T04:33:33;14.00;99.90
1355;DHT22;671;48.972;9.276;2023-09-07T04:36:18;13.90;99.90
1355;DHT22;671;48.972;9.276;2023-09-07T04:38:44;13.90;99.90
1355;DHT22;671;48.972;9.276;2023-09-07T04:41:12;13.90;99.90
1355;DHT22;671;48.972;9.276;2023-09-07T04:43:40;13.90;99.90
1355;DHT22;671;48.972;9.276;2023-09-07T04:46:10;13.90;99.90
1355;DHT22;671;48.972;9.276;2023-09-07T04:48:37;13.90;99.90
1355;DHT22;671;48.972;9.276;2023-09-07T04:51:05;13.80;99.90
1355;DHT22;671;48.972;9.276;2023-09-07T04:53:34;13.80;99.90
1355;DHT22;671;48.972;9.276;2023-09-07T04:56:04;13.80;99.90
1355;DHT22;671;48.972;9.276;2023-09-07T04:58:31;13.80;99.90
1355;DHT22;671;48.972;9.276;2023-09-07T05:01:16;13.80;99.90
1355;DHT22;671;48.972;9.276;2023-09-07T05:03:42;13.80;99.90
1355;DHT22;671;48.972;9.276;2023-09-07T05:06:09;13.80;99.90
1355;DHT22;671;48.972;9.276;2023-09-07T05:08:35;13.80;99.90
1355;DHT22;671;48.972;9.276;2023-09-07T05:11:03;13.80;99.90
1355;DHT22;671;48.972;9.276;2023-09-07T05:13:30;13.80;99.90
1355;DHT22;671;48.972;9.276;2023-09-07T05:15:58;13.80;99.90
1355;DHT22;671;48.972;9.276;2023-09-07T05:18:25;13.90;99.90
1355;DHT22;671;48.972;9.276;2023-09-07T05:20:52;13.90;99.90
1355;DHT22;671;48.972;9.276;2023-09-07T05:23:19;13.90;99.90
1355;DHT22;671;48.972;9.276;2023-09-07T05:25:47;13.90;99.90
1355;DHT22;671;48.972;9.276;2023-09-07T05:28:15;13.90;99.90
1355;DHT22;671;48.972;9.276;2023-09-07T05:30:42;14.00;99.90
1355;DHT22;671;48.972;9.276;2023-09-07T05:33:10;14.00;99.90
1355;DHT22;671;48.972;9.276;2023-09-07T05:35:37;14.10;99.90
1355;DHT22;671;48.972;9.276;2023-09-07T05:38:06;14.10;99.90
1355;DHT22;671;48.972;9.276;2023-09-07T05:40:42;14.20;99.90
1355;DHT22;671;48.972;9.276;2023-09-07T05:43:11;14.20;99.90
1355;DHT22;671;48.972;9.276;2023-09-07T05:45:40;14.20;99.90
1355;DHT22;671;48.972;9.276;2023-09-07T05:48:07;14.30;99.90
1355;DHT22;671;48.972;9.276;2023-09-07T05:50:35;14.40;99.90
1355;DHT22;671;48.972;9.276;2023-09-07T05:53:02;14.40;99.90
1355;DHT22;671;48.972;9.276;2023-09-07T05:55:28;14.50;99.90
1355;DHT22;671;48.972;9.276;2023-09-07T05:57:56;14.50;99.90
1355;DHT22;671;48.972;9.276;2023-09-07T06:00:23;14.60;99.90
1355;DHT22;671;48.972;9.276;2023-09-07T06:02:50;14.60;99.90
1355;DHT22;671;48.972;9.276;2023-09-07T06:05:17;14.70;99.90
1355;DHT22;671;48.972;9.276;2023-09-07T06:07:44;14.80;99.90
1355;DHT22;671;48.972;9.276;2023-09-07T06:10:11;14.90;99.90
1355;DHT22;671;48.972;9.276;2023-09-07T06:12:37;15.00;99.90
1355;DHT22;671;48.972;9.276;2023-09-07T06:15:04;15.10;99.90
1355;DHT22;671;48.972;9.276;2023-09-07T06:17:31;15.20;99.90
1355;DHT22;671;48.972;9.276;2023-09-07T06:19:57;15.30;99.90
1355;DHT22;671;48.972;9.276;2023-09-07T06:22:24;15.40;99.90
1355;DHT22;671;48.972;9.276;2023-09-07T06:24:50;15.50;99.90
1355;DHT22;671;48.972;9.276;2023-09-07T06:27:17;15.60;99.90
1355;DHT22;671;48.972;9.276;2023-09-07T06:29:43;15.70;99.90
1355;DHT22;671;48.972;9.276;2023-09-07T06:32:10;15.80;99.90
1355;DHT22;671;48.972;9.276;2023-09-07T06:34:36;15.80;99.90
1355;DHT22;671;48.972;9.276;2023-09-07T06:37:03;16.00;99.90
1355;DHT22;671;48.972;9.276;2023-09-07T06:39:29;16.00;99.90
1355;DHT22;671;48.972;9.276;2023-09-07T06:41:56;16.10;99.90
1355;DHT22;671;48.972;9.276;2023-09-07T06:44:22;16.20;99.90
1355;DHT22;671;48.972;9.276;2023-09-07T06:46:49;16.30;99.90
1355;DHT22;671;48.972;9.276;2023-09-07T06:49:15;16.40;99.90
1355;DHT22;671;48.972;9.276;2023-09-07T06:51:42;16.50;99.90
1355;DHT22;671;48.972;9.276;2023-09-07T06:54:08;16.60;99.90
1355;DHT22;671;48.972;9.276;2023-09-07T06:56:36;16.80;99.90
1355;DHT22;671;48.972;9.276;2023-09-07T06:59:02;16.90;99.90
1355;DHT22;671;48.972;9.276;2023-09-07T07:01:29;17.00;99.90
1355;DHT22;671;48.972;9.276;2023-09-07T07:03:56;17.20;99.90
1355;DHT22;671;48.972;9.276;2023-09-07T07:06:23;17.30;99.90
1355;DHT22;671;48.972;9.276;2023-09-07T07:08:51;17.40;99.90
1355;DHT22;671;48.972;9.276;2023-09-07T07:11:18;17.60;99.90
1355;DHT22;671;48.972;9.276;2023-09-07T07:13:45;17.70;99.90
1355;DHT22;671;48.972;9.276;2023-09-07T07:16:11;17.90;99.90
1355;DHT22;671;48.972;9.276;2023-09-07T07:18:38;18.00;99.90
1355;DHT22;671;48.972;9.276;2023-09-07T07:21:05;18.20;99.90
1355;DHT22;671;48.972;9.276;2023-09-07T07:23:32;18.40;99.90
1355;DHT22;671;48.972;9.276;2023-09-07T07:25:58;18.50;99.90
1355;DHT22;671;48.972;9.276;2023-09-07T07:28:25;18.70;99.90
1355;DHT22;671;48.972;9.276;2023-09-07T07:30:51;18.90;99.90
1355;DHT22;671;48.972;9.276;2023-09-07T07:33:20;19.00;99.90
1355;DHT22;671;48.972;9.276;2023-09-07T07:35:46;19.20;99.90
1355;DHT22;671;48.972;9.276;2023-09-07T07:38:14;19.30;99.90
1355;DHT22;671;48.972;9.276;2023-09-07T07:40:40;19.50;99.90
1355;DHT22;671;48.972;9.276;2023-09-07T07:43:09;19.60;99.90
1355;DHT22;671;48.972;9.276;2023-09-07T07:45:36;19.80;99.90
1355;DHT22;671;48.972;9.276;2023-09-07T07:48:05;19.90;99.90
1355;DHT22;671;48.972;9.276;2023-09-07T07:50:39;20.00;99.90
1355;DHT22;671;48.972;9.276;2023-09-07T07:53:07;20.10;99.90
1355;DHT22;671;48.972;9.276;2023-09-07T07:55:37;20.30;99.90
1355;DHT22;671;48.972;9.276;2023-09-07T07:58:06;20.40;99.90
1355;DHT22;671;48.972;9.276;2023-09-07T08:00:35;20.40;99.90
1355;DHT22;671;48.972;9.276;2023-09-07T08:03:02;20.50;99.90
1355;DHT22;671;48.972;9.276;2023-09-07T08:05:29;20.60;99.90
1355;DHT22;671;48.972;9.276;2023-09-07T08:07:57;20.70;99.90
1355;DHT22;671;48.972;9.276;2023-09-07T08:10:24;20.80;99.90
1355;DHT22;671;48.972;9.276;2023-09-07T08:12:56;20.90;99.90
1355;DHT22;671;48.972;9.276;2023-09-07T08:15:23;21.00;99.90
1355;DHT22;671;48.972;9.276;2023-09-07T08:17:51;21.10;99.90
1355;DHT22;671;48.972;9.276;2023-09-07T08:20:18;21.10;99.90
1355;DHT22;671;48.972;9.276;2023-09-07T08:22:44;21.20;99.90
1355;DHT22;671;48.972;9.276;2023-09-07T08:25:13;21.30;99.90
1355;DHT22;671;48.972;9.276;2023-09-07T08:27:42;21.40;99.90
1355;DHT22;671;48.972;9.276;2023-09-07T08:30:15;21.40;99.90
1355;DHT22;671;48.972;9.276;2023-09-07T08:32:42;21.50;99.90
1355;DHT22;671;48.972;9.276;2023-09-07T08:35:10;21.70;99.90
1355;DHT22;671;48.972;9.276;2023-09-07T08:37:39;21.70;99.90
1355;DHT22;671;48.972;9.276;2023-09-07T08:40:06;21.70;99.90
1355;DHT22;671;48.972;9.276;2023-09-07T08:42:37;21.80;99.90
1355;DHT22;671;48.972;9.276;2023-09-07T08:45:05;21.80;99.90
1355;DHT22;671;48.972;9.276;2023-09-07T08:47:35;21.90;99.90
1355;DHT22;671;48.972;9.276;2023-09-07T08:50:03;22.00;99.90
1355;DHT22;671;48.972;9.276;2023-09-07T08:52:33;22.10;99.90
1355;DHT22;671;48.972;9.276;2023-09-07T08:55:01;22.20;99.90
1355;DHT22;671;48.972;9.276;2023-09-07T08:57:31;22.30;99.90
1355;DHT22;671;48.972;9.276;2023-09-07T08:59:58;22.40;99.90
1355;DHT22;671;48.972;9.276;2023-09-07T09:02:25;22.50;99.90
1355;DHT22;671;48.972;9.276;2023-09-07T09:04:52;22.50;99.90
1355;DHT22;671;48.972;9.276;2023-09-07T09:07:19;22.60;99.90
1355;DHT22;671;48.972;9.276;2023-09-07T09:09:47;22.60;99.90
1355;DHT22;671;48.972;9.276;2023-09-07T09:12:14;22.70;99.90
1355;DHT22;671;48.972;9.276;2023-09-07T09:14:44;22.70;99.90
1355;DHT22;671;48.972;9.276;2023-09-07T09:17:12;22.70;99.90
1355;DHT22;671;48.972;9.276;2023-09-07T09:19:39;22.80;99.90
1355;DHT22;671;48.972;9.276;2023-09-07T09:22:06;22.80;99.90
1355;DHT22;671;48.972;9.276;2023-09-07T09:24:33;22.90;99.90
1355;DHT22;671;48.972;9.276;2023-09-07T09:27:01;23.00;99.90
1355;DHT22;671;48.972;9.276;2023-09-07T09:29:27;23.10;99.90
1355;DHT22;671;48.972;9.276;2023-09-07T09:31:54;23.10;99.90
1355;DHT22;671;48.972;9.276;2023-09-07T09:34:21;23.20;99.90
1355;DHT22;671;48.972;9.276;2023-09-07T09:36:47;23.20;99.90
1355;DHT22;671;48.972;9.276;2023-09-07T09:39:24;23.30;99.90
1355;DHT22;671;48.972;9.276;2023-09-07T09:41:52;23.40;99.90
1355;DHT22;671;48.972;9.276;2023-09-07T09:44:22;23.50;99.90
1355;DHT22;671;48.972;9.276;2023-09-07T09:46:52;23.50;99.90
1355;DHT22;671;48.972;9.276;2023-09-07T09:49:21;23.60;99.90
1355;DHT22;671;48.972;9.276;2023-09-07T09:51:51;23.70;99.90
1355;DHT22;671;48.972;9.276;2023-09-07T09:54:18;23.80;99.90
1355;DHT22;671;48.972;9.276;2023-09-07T09:56:44;23.90;99.90
1355;DHT22;671;48.972;9.276;2023-09-07T09:59:14;24.00;99.90
1355;DHT22;671;48.972;9.276;2023-09-07T10:01:44;24.00;99.90
1355;DHT22;671;48.972;9.276;2023-09-07T10:04:13;24.10;99.90
1355;DHT22;671;48.972;9.276;2023-09-07T10:06:53;24.20;99.90
1355;DHT22;671;48.972;9.276;2023-09-07T10:09:20;24.20;99.90
1355;DHT22;671;48.972;9.276;2023-09-07T10:11:52;24.40;99.90
1355;DHT22;671;48.972;9.276;2023-09-07T10:14:20;24.40;99.90
1355;DHT22;671;48.972;9.276;2023-09-07T10:16:53;24.50;99.90
1355;DHT22;671;48.972;9.276;2023-09-07T10:19:26;24.70;99.90
1355;DHT22;671;48.972;9.276;2023-09-07T10:21:54;24.70;99.90
1355;DHT22;671;48.972;9.276;2023-09-07T10:24:31;24.90;99.90
1355;DHT22;671;48.972;9.276;2023-09-07T10:27:08;25.00;99.90
1355;DHT22;671;48.972;9.276;2023-09-07T10:29:44;25.00;99.90
1355;DHT22;671;48.972;9.276;2023-09-07T10:32:12;25.00;99.90
1355;DHT22;671;48.972;9.276;2023-09-07T10:34:41;25.10;99.90
1355;DHT22;671;48.972;9.276;2023-09-07T10:37:14;25.20;99.90
1355;DHT22;671;48.972;9.276;2023-09-07T10:39:43;25.40;99.90
1355;DHT22;671;48.972;9.276;2023-09-07T10:42:25;25.30;99.90
1355;DHT22;671;48.972;9.276;2023-09-07T10:44:52;25.40;99.90
1355;DHT22;671;48.972;9.276;2023-09-07T10:47:19;25.60;99.90
1355;DHT22;671;48.972;9.276;2023-09-07T10:49:46;25.50;99.90
1355;DHT22;671;48.972;9.276;2023-09-07T10:52:12;25.70;99.90
1355;DHT22;671;48.972;9.276;2023-09-07T10:54:39;25.70;99.90
1355;DHT22;671;48.972;9.276;2023-09-07T10:57:12;25.70;99.90
1355;DHT22;671;48.972;9.276;2023-09-07T10:59:44;25.70;99.90
1355;DHT22;671;48.972;9.276;2023-09-07T11:02:12;25.80;99.90
1355;DHT22;671;48.972;9.276;2023-09-07T11:04:38;26.00;99.90
1355;DHT22;671;48.972;9.276;2023-09-07T11:07:05;26.00;99.90
1355;DHT22;671;48.972;9.276;2023-09-07T11:09:31;26.00;99.90
1355;DHT22;671;48.972;9.276;2023-09-07T11:12:04;26.10;99.90
1355;DHT22;671;48.972;9.276;2023-09-07T11:14:31;26.20;99.90
1355;DHT22;671;48.972;9.276;2023-09-07T11:16:58;26.30;99.90
1355;DHT22;671;48.972;9.276;2023-09-07T11:19:24;26.30;99.90
1355;DHT22;671;48.972;9.276;2023-09-07T11:21:53;26.40;99.90
1355;DHT22;671;48.972;9.276;2023-09-07T11:24:20;26.40;99.90
1355;DHT22;671;48.972;9.276;2023-09-07T11:26:47;26.50;99.90
1355;DHT22;671;48.972;9.276;2023-09-07T11:29:17;26.60;99.90
1355;DHT22;671;48.972;9.276;2023-09-07T11:31:45;26.60;99.90
1355;DHT22;671;48.972;9.276;2023-09-07T11:34:13;26.60;99.90
1355;DHT22;671;48.972;9.276;2023-09-07T11:36:41;26.70;99.90
1355;DHT22;671;48.972;9.276;2023-09-07T11:39:08;26.80;99.90
1355;DHT22;671;48.972;9.276;2023-09-07T11:41:43;26.90;99.90
1355;DHT22;671;48.972;9.276;2023-09-07T11:44:11;26.90;99.90
1355;DHT22;671;48.972;9.276;2023-09-07T11:46:38;27.00;99.90
1355;DHT22;671;48.972;9.276;2023-09-07T11:49:04;27.10;99.90
1355;DHT22;671;48.972;9.276;2023-09-07T11:51:32;27.10;99.90
1355;DHT22;671;48.972;9.276;2023-09-07T11:53:58;27.10;99.90
1355;DHT22;671;48.972;9.276;2023-09-07T11:56:25;27.10;99.90
1355;DHT22;671;48.972;9.276;2023-09-07T11:58:53;27.20;99.90
1355;DHT22;671;48.972;9.276;2023-09-07T12:01:19;27.30;99.90
1355;DHT22;671;48.972;9.276;2023-09-07T12:03:46;27.40;99.90
1355;DHT22;671;48.972;9.276;2023-09-07T12:06:13;27.50;99.90
1355;DHT22;671;48.972;9.276;2023-09-07T12:08:42;27.60;99.90
1355;DHT22;671;48.972;9.276;2023-09-07T12:11:09;27.60;99.90
1355;DHT22;671;48.972;9.276;2023-09-07T12:13:35;27.70;99.90
1355;DHT22;671;48.972;9.276;2023-09-07T12:16:02;27.70;99.90
1355;DHT22;671;48.972;9.276;2023-09-07T12:18:28;27.80;99.90
1355;DHT22;671;48.972;9.276;2023-09-07T12:20:55;27.80;99.90
1355;DHT22;671;48.972;9.276;2023-09-07T12:23:21;27.80;99.90
1355;DHT22;671;48.972;9.276;2023-09-07T12:25:49;27.90;99.90
1355;DHT22;671;48.972;9.276;2023-09-07T12:28:17;28.00;99.90
1355;DHT22;671;48.972;9.276;2023-09-07T12:30:44;28.00;99.90
1355;DHT22;671;48.972;9.276;2023-09-07T12:33:10;28.10;99.90
1355;DHT22;671;48.972;9.276;2023-09-07T12:35:37;28.10;99.90
1355;DHT22;671;48.972;9.276;2023-09-07T12:38:04;28.20;99.90
1355;DHT22;671;48.972;9.276;2023-09-07T12:40:31;28.20;99.90
1355;DHT22;671;48.972;9.276;2023-09-07T12:42:57;28.30;99.90
1355;DHT22;671;48.972;9.276;2023-09-07T12:45:24;28.30;99.90
1355;DHT22;671;48.972;9.276;2023-09-07T12:47:50;28.40;99.90
1355;DHT22;671;48.972;9.276;2023-09-07T12:50:17;28.40;99.90
1355;DHT22;671;48.972;9.276;2023-09-07T12:52:43;28.50;99.90
1355;DHT22;671;48.972;9.276;2023-09-07T12:55:10;28.60;99.90
1355;DHT22;671;48.972;9.276;2023-09-07T12:57:36;28.60;99.90
1355;DHT22;671;48.972;9.276;2023-09-07T13:00:06;28.60;99.90
1355;DHT22;671;48.972;9.276;2023-09-07T13:02:33;28.70;99.90
1355;DHT22;671;48.972;9.276;2023-09-07T13:04:59;28.70;99.90
1355;DHT22;671;48.972;9.276;2023-09-07T13:07:26;28.70;99.90
1355;DHT22;671;48.972;9.276;2023-09-07T13:09:52;28.70;99.90
1355;DHT22;671;48.972;9.276;2023-09-07T13:12:20;28.80;99.90
1355;DHT22;671;48.972;9.276;2023-09-07T13:14:47;28.80;99.90
1355;DHT22;671;48.972;9.276;2023-09-07T13:17:14;28.90;99.90
1355;DHT22;671;48.972;9.276;2023-09-07T13:19:41;28.90;99.90
1355;DHT22;671;48.972;9.276;2023-09-07T13:22:09;29.00;99.90
1355;DHT22;671;48.972;9.276;2023-09-07T13:24:35;29.00;99.90
1355;DHT22;671;48.972;9.276;2023-09-07T13:27:02;29.00;99.90
1355;DHT22;671;48.972;9.276;2023-09-07T13:29:34;29.10;99.90
1355;DHT22;671;48.972;9.276;2023-09-07T13:32:00;29.10;99.90
1355;DHT22;671;48.972;9.276;2023-09-07T13:34:27;29.20;99.90
1355;DHT22;671;48.972;9.276;2023-09-07T13:36:54;29.20;99.90
1355;DHT22;671;48.972;9.276;2023-09-07T13:39:46;29.20;99.90
1355;DHT22;671;48.972;9.276;2023-09-07T13:42:12;29.30;99.90
1355;DHT22;671;48.972;9.276;2023-09-07T13:44:39;29.30;99.90
1355;DHT22;671;48.972;9.276;2023-09-07T13:47:06;29.30;99.90
1355;DHT22;671;48.972;9.276;2023-09-07T13:49:32;29.40;99.90
1355;DHT22;671;48.972;9.276;2023-09-07T13:51:59;29.40;99.90
1355;DHT22;671;48.972;9.276;2023-09-07T13:54:25;29.50;99.90
1355;DHT22;671;48.972;9.276;2023-09-07T13:56:52;29.50;99.90
1355;DHT22;671;48.972;9.276;2023-09-07T13:59:18;29.50;99.90
1355;DHT22;671;48.972;9.276;2023-09-07T14:01:45;29.60;99.90
1355;DHT22;671;48.972;9.276;2023-09-07T14:04:11;29.60;99.90
1355;DHT22;671;48.972;9.276;2023-09-07T14:06:37;29.60;99.90
1355;DHT22;671;48.972;9.276;2023-09-07T14:09:04;29.60;99.60
1355;DHT22;671;48.972;9.276;2023-09-07T14:11:33;29.60;99.60
1355;DHT22;671;48.972;9.276;2023-09-07T14:13:59;29.60;99.10
1355;DHT22;671;48.972;9.276;2023-09-07T14:16:26;29.50;98.70
1355;DHT22;671;48.972;9.276;2023-09-07T14:18:52;29.60;99.20
1355;DHT22;671;48.972;9.276;2023-09-07T14:21:19;29.60;97.70
1355;DHT22;671;48.972;9.276;2023-09-07T14:23:45;29.60;97.20
1355;DHT22;671;48.972;9.276;2023-09-07T14:26:12;29.60;98.00
1355;DHT22;671;48.972;9.276;2023-09-07T14:28:39;29.60;98.10
1355;DHT22;671;48.972;9.276;2023-09-07T14:31:06;29.60;96.80
1355;DHT22;671;48.972;9.276;2023-09-07T14:33:34;29.60;96.80
1355;DHT22;671;48.972;9.276;2023-09-07T14:36:03;29.60;97.10
1355;DHT22;671;48.972;9.276;2023-09-07T14:38:29;29.50;96.40
1355;DHT22;671;48.972;9.276;2023-09-07T14:40:57;29.50;96.50
1355;DHT22;671;48.972;9.276;2023-09-07T14:43:23;29.50;96.70
1355;DHT22;671;48.972;9.276;2023-09-07T14:45:50;29.60;97.10
1355;DHT22;671;48.972;9.276;2023-09-07T14:48:16;29.60;96.60
1355;DHT22;671;48.972;9.276;2023-09-07T14:50:43;29.60;96.70
1355;DHT22;671;48.972;9.276;2023-09-07T14:53:09;29.60;96.80
1355;DHT22;671;48.972;9.276;2023-09-07T14:55:36;29.60;96.90
1355;DHT22;671;48.972;9.276;2023-09-07T14:58:03;29.60;96.30
1355;DHT22;671;48.972;9.276;2023-09-07T15:00:30;29.60;96.00
1355;DHT22;671;48.972;9.276;2023-09-07T15:02:59;29.70;96.30
1355;DHT22;671;48.972;9.276;2023-09-07T15:05:25;29.70;96.70
1355;DHT22;671;48.972;9.276;2023-09-07T15:07:52;29.70;96.00
1355;DHT22;671;48.972;9.276;2023-09-07T15:10:18;29.60;96.80
1355;DHT22;671;48.972;9.276;2023-09-07T15:12:45;29.70;97.10
1355;DHT22;671;48.972;9.276;2023-09-07T15:15:11;29.70;95.90
1355;DHT22;671;48.972;9.276;2023-09-07T15:17:38;29.70;95.70
1355;DHT22;671;48.972;9.276;2023-09-07T15:20:08;29.70;95.90
1355;DHT22;671;48.972;9.276;2023-09-07T15:22:35;29.60;96.10
1355;DHT22;671;48.972;9.276;2023-09-07T15:25:02;29.70;95.80
1355;DHT22;671;48.972;9.276;2023-09-07T15:27:28;29.70;95.50
1355;DHT22;671;48.972;9.276;2023-09-07T15:29:55;29.70;95.10
1355;DHT22;671;48.972;9.276;2023-09-07T15:32:21;29.70;95.20
1355;DHT22;671;48.972;9.276;2023-09-07T15:34:48;29.60;96.20
1355;DHT22;671;48.972;9.276;2023-09-07T15:37:15;29.60;96.10
1355;DHT22;671;48.972;9.276;2023-09-07T15:39:41;29.60;96.00
1355;DHT22;671;48.972;9.276;2023-09-07T15:42:11;29.60;96.40
1355;DHT22;671;48.972;9.276;2023-09-07T15:44:37;29.60;95.40
1355;DHT22;671;48.972;9.276;2023-09-07T15:47:04;29.60;94.80
1355;DHT22;671;48.972;9.276;2023-09-07T15:49:31;29.60;95.10
1355;DHT22;671;48.972;9.276;2023-09-07T15:51:58;29.50;95.00
1355;DHT22;671;48.972;9.276;2023-09-07T15:54:24;29.50;95.00
1355;DHT22;671;48.972;9.276;2023-09-07T15:56:50;29.50;93.80
1355;DHT22;671;48.972;9.276;2023-09-07T15:59:17;29.40;93.30
1355;DHT22;671;48.972;9.276;2023-09-07T16:01:44;29.40;93.40
1355;DHT22;671;48.972;9.276;2023-09-07T16:04:10;29.30;93.50
1355;DHT22;671;48.972;9.276;2023-09-07T16:06:37;29.30;93.20
1355;DHT22;671;48.972;9.276;2023-09-07T16:09:03;29.30;92.80
1355;DHT22;671;48.972;9.276;2023-09-07T16:11:31;29.20;93.50
1355;DHT22;671;48.972;9.276;2023-09-07T16:13:58;29.20;93.50
1355;DHT22;671;48.972;9.276;2023-09-07T16:16:24;29.20;93.50
1355;DHT22;671;48.972;9.276;2023-09-07T16:18:51;29.20;93.50